Time;durP1;ratioP1;P1;durP2;ratioP2;P2;SDS_P1;SDS_P2;PMS_P1;PMS_P2;Temp;Humidity;BMP_temperature;BMP_pressure;BME280_temperature;BME280_humidity;BME280_pressure;Samples;Min_cycle;Max_cycle;Signal;HPM_P1;HPM_P2
2021/08/26 00:00:07;;;;;;;;;;;;;;;22.34;80.04;102021.75;7284933;19;152071;-50
2021/08/26 00:07:36;;;;;;;;;;;;;;;22.34;80.35;102016.13;7285121;19;152787;-50
2021/08/26 00:10:07;;;;;;;;;;;;;;;22.35;80.47;102012.97;7280946;19;154048;-50
2021/08/26 00:12:35;;;;;;;;;;;;;;;22.35;80.89;102017.81;7285951;19;152547;-50
2021/08/26 00:15:03;;;;;;;;;;;;;;;22.36;80.32;102019.47;7283823;19;153080;-50
2021/08/26 00:17:30;;;;;;;;;;;;;;;22.35;81.10;102012.19;7284460;19;154058;-49
2021/08/26 00:19:58;;;;;;;;;;;;;;;22.39;80.51;102010.44;7284611;19;151610;-50
2021/08/26 00:22:25;;;;;;;;;;;;;;;22.39;80.52;102000.03;7287276;19;152667;-50
2021/08/26 00:24:53;;;;;;;;;;;;;;;22.41;80.51;102003.38;7289711;19;153247;-50
2021/08/26 00:27:23;;;;;;;;;;;;;;;22.41;80.48;101989.28;7285264;19;153603;-49
2021/08/26 00:29:50;;;;;;;;;;;;;;;22.42;80.54;101990.97;7284251;19;152889;-50
2021/08/26 00:32:17;;;;;;;;;;;;;;;22.42;80.63;101987.31;7285323;19;151579;-50
2021/08/26 00:34:44;;;;;;;;;;;;;;;22.42;80.74;101985.34;7285144;19;153052;-49
2021/08/26 00:37:12;;;;;;;;;;;;;;;22.43;80.54;101981.41;7282406;19;154517;-50
2021/08/26 00:39:39;;;;;;;;;;;;;;;22.43;80.34;101981.41;7283868;19;151658;-50
2021/08/26 00:42:06;;;;;;;;;;;;;;;22.41;80.55;101982.81;7283843;19;153352;-50
2021/08/26 00:44:35;;;;;;;;;;;;;;;22.43;80.72;101989.84;7284002;19;153750;-50
2021/08/26 00:47:07;;;;;;;;;;;;;;;22.42;80.64;101979.72;7291710;19;152037;-49
2021/08/26 00:49:34;;;;;;;;;;;;;;;22.42;80.22;101979.72;7282838;19;154135;-50
2021/08/26 00:52:02;;;;;;;;;;;;;;;22.43;80.16;101980.56;7282041;19;151885;-50
2021/08/26 00:54:29;;;;;;;;;;;;;;;22.42;80.24;101978.88;7282687;19;152729;-49
2021/08/26 00:56:56;;;;;;;;;;;;;;;22.42;80.74;101979.72;7284325;19;154135;-50
2021/08/26 00:59:26;;;;;;;;;;;;;;;22.42;80.42;101971.25;7284954;19;152414;-50
2021/08/26 01:01:56;;;;;;;;;;;;;;;22.44;80.53;101977.41;7284333;19;152200;-50
2021/08/26 01:04:31;;;;;;;;;;;;;;;22.46;80.37;101982.75;7282769;19;153054;-50
2021/08/26 01:07:02;;;;;;;;;;;;;;;22.46;80.64;101975.16;7285213;19;151893;-50
2021/08/26 01:09:32;;;;;;;;;;;;;;;22.47;80.42;101981.63;7289813;19;154320;-50
2021/08/26 01:12:01;;;;;;;;;;;;;;;22.46;80.62;101983.59;7281468;19;152688;-50
2021/08/26 01:14:29;;;;;;;;;;;;;;;22.47;80.56;101971.22;7281127;19;152115;-50
2021/08/26 01:16:56;;;;;;;;;;;;;;;22.49;80.37;101968.06;7280920;19;153750;-50
2021/08/26 01:19:23;;;;;;;;;;;;;;;22.50;80.55;101979.06;7281924;19;151743;-50
2021/08/26 01:21:50;;;;;;;;;;;;;;;22.51;80.24;101980.75;7287954;19;152627;-50
2021/08/26 01:24:18;;;;;;;;;;;;;;;22.50;80.13;101981.88;7285817;19;154445;-50
2021/08/26 01:26:49;;;;;;;;;;;;;;;22.51;80.05;101971.44;7289134;19;154199;-50
2021/08/26 01:29:16;;;;;;;;;;;;;;;22.49;80.24;101968.91;7288529;19;152610;-50
2021/08/26 01:31:43;;;;;;;;;;;;;;;22.52;80.29;101971.16;7289781;19;152567;-50
2021/08/26 01:34:12;;;;;;;;;;;;;;;22.52;79.98;101962.72;7289681;19;152775;-50
2021/08/26 01:36:39;;;;;;;;;;;;;;;22.51;80.42;101965.81;7288030;19;152453;-50
2021/08/26 01:39:09;;;;;;;;;;;;;;;22.49;79.92;101965.25;7289023;19;151737;-50
2021/08/26 01:41:39;;;;;;;;;;;;;;;22.46;80.29;101954.59;7287597;19;152390;-50
2021/08/26 01:44:06;;;;;;;;;;;;;;;22.45;80.30;101962.22;7288857;19;153637;-49
2021/08/26 01:46:33;;;;;;;;;;;;;;;22.46;80.11;101963.91;7287544;19;151967;-50
2021/08/26 01:49:01;;;;;;;;;;;;;;;22.44;80.43;101954.88;7289993;19;153413;-50
2021/08/26 01:51:28;;;;;;;;;;;;;;;22.45;80.26;101964.19;7286783;19;154102;-51
2021/08/26 01:53:55;;;;;;;;;;;;;;;22.45;80.66;101958.56;7294084;19;151907;-50
2021/08/26 01:56:22;;;;;;;;;;;;;;;22.43;80.57;101958.88;7287069;19;154328;-50
2021/08/26 01:58:50;;;;;;;;;;;;;;;22.45;80.65;101964.19;7288874;19;151506;-50
2021/08/26 02:01:17;;;;;;;;;;;;;;;22.45;80.45;101962.22;7290566;19;151944;-50
2021/08/26 02:03:44;;;;;;;;;;;;;;;22.45;80.76;101961.38;7288221;19;155598;-50
2021/08/26 02:06:12;;;;;;;;;;;;;;;22.44;80.50;101954.88;7286885;19;151774;-49
2021/08/26 02:08:39;;;;;;;;;;;;;;;22.44;80.86;101960.53;7287053;19;153609;-50
2021/08/26 02:11:06;;;;;;;;;;;;;;;22.44;80.54;101952.06;7288752;19;153455;-50
2021/08/26 02:13:33;;;;;;;;;;;;;;;22.44;80.40;101962.53;7295648;19;151876;-50
2021/08/26 02:16:00;;;;;;;;;;;;;;;22.44;80.72;101959.72;7284581;19;154713;-50
2021/08/26 02:18:27;;;;;;;;;;;;;;;22.45;81.17;101953.75;7288593;19;151633;-50
2021/08/26 02:20:54;;;;;;;;;;;;;;;22.45;80.70;101950.94;7290032;19;152771;-50
2021/08/26 02:23:21;;;;;;;;;;;;;;;22.43;80.40;101950.41;7285844;19;153428;-50
2021/08/26 02:25:49;;;;;;;;;;;;;;;22.44;80.51;101963.34;7286908;19;151775;-50
2021/08/26 02:28:16;;;;;;;;;;;;;;;22.44;80.39;101954.88;7289255;19;153560;-50
2021/08/26 02:30:43;;;;;;;;;;;;;;;22.43;81.00;101944.78;7285102;19;153374;-50
2021/08/26 02:33:10;;;;;;;;;;;;;;;22.43;80.73;101943.94;7284304;19;152726;-50
2021/08/26 02:35:37;;;;;;;;;;;;;;;22.43;80.95;101950.41;7293193;19;151923;-50
2021/08/26 02:38:04;;;;;;;;;;;;;;;22.43;80.43;101941.97;7287013;19;151552;-50
2021/08/26 02:40:32;;;;;;;;;;;;;;;22.43;80.65;101941.97;7288895;19;153330;-50
2021/08/26 02:42:59;;;;;;;;;;;;;;;22.44;80.77;101949.25;7285334;19;153481;-50
2021/08/26 02:45:26;;;;;;;;;;;;;;;22.44;80.92;101949.25;7286567;19;151742;-50
2021/08/26 02:47:53;;;;;;;;;;;;;;;22.45;80.70;101938.84;7286023;19;153306;-49
2021/08/26 02:50:20;;;;;;;;;;;;;;;22.45;80.66;101933.19;7284666;19;153458;-49
2021/08/26 02:52:47;;;;;;;;;;;;;;;22.44;80.68;101945.63;7283059;19;151730;-50
2021/08/26 02:55:15;;;;;;;;;;;;;;;22.44;80.93;101938.00;7284409;19;152089;-50
2021/08/26 02:57:42;;;;;;;;;;;;;;;22.46;81.01;101943.34;7294621;19;154126;-50
2021/08/26 03:00:09;;;;;;;;;;;;;;;22.48;81.06;101943.91;7285826;19;152130;-49
2021/08/26 03:02:36;;;;;;;;;;;;;;;22.48;81.04;101947.56;7287708;19;154251;-50
2021/08/26 03:05:04;;;;;;;;;;;;;;;22.46;80.22;101943.34;7286816;19;152115;-50
2021/08/26 03:07:31;;;;;;;;;;;;;;;22.46;80.66;101941.38;7287693;19;153854;-50
2021/08/26 03:09:58;;;;;;;;;;;;;;;22.45;80.77;101938.84;7285485;19;154134;-50
2021/08/26 03:12:26;;;;;;;;;;;;;;;22.46;80.28;101940.53;7284723;19;151673;-50
2021/08/26 03:14:53;;;;;;;;;;;;;;;22.45;80.75;101939.69;7285436;19;153532;-50
2021/08/26 03:17:20;;;;;;;;;;;;;;;22.45;80.57;101939.69;7287978;19;153448;-49
2021/08/26 03:19:47;;;;;;;;;;;;;;;22.45;80.86;101936.84;7294967;19;152506;-50
2021/08/26 03:22:14;;;;;;;;;;;;;;;22.45;80.61;101936.00;7284551;19;153447;-50
2021/08/26 03:24:41;;;;;;;;;;;;;;;22.44;80.87;101931.53;7287435;19;152020;-50
2021/08/26 03:27:08;;;;;;;;;;;;;;;22.43;80.58;101919.44;7285057;19;153591;-50
2021/08/26 03:29:35;;;;;;;;;;;;;;;22.44;81.13;101931.53;7283923;19;153441;-50
2021/08/26 03:32:02;;;;;;;;;;;;;;;22.44;80.80;101926.72;7286566;19;152367;-50
2021/08/26 03:34:30;;;;;;;;;;;;;;;22.44;80.82;101923.91;7286742;19;151779;-50
2021/08/26 03:36:57;;;;;;;;;;;;;;;22.44;80.84;101920.28;7284069;19;154182;-50
2021/08/26 03:39:24;;;;;;;;;;;;;;;22.46;80.98;101924.47;7286244;19;152047;-50
2021/08/26 03:41:51;;;;;;;;;;;;;;;22.46;80.51;101920.81;7293103;19;151937;-50
2021/08/26 03:44:18;;;;;;;;;;;;;;;22.44;80.78;101926.72;7283970;19;152076;-50
2021/08/26 03:46:45;;;;;;;;;;;;;;;22.45;80.96;101925.59;7287192;19;152800;-50
2021/08/26 03:49:13;;;;;;;;;;;;;;;22.45;80.74;101921.94;7284344;19;153250;-50
2021/08/26 03:51:40;;;;;;;;;;;;;;;22.44;81.04;101918.28;7285493;19;151941;-50
2021/08/26 03:54:07;;;;;;;;;;;;;;;22.43;80.85;101911.00;7282845;19;153484;-48
2021/08/26 03:56:34;;;;;;;;;;;;;;;22.44;80.80;101907.00;7285725;19;154457;-50
2021/08/26 03:59:01;;;;;;;;;;;;;;;22.44;80.87;101912.66;7280787;19;151729;-49
2021/08/26 04:01:28;;;;;;;;;;;;;;;22.45;80.57;101911.50;7286388;19;153487;-50
2021/08/26 04:03:56;;;;;;;;;;;;;;;22.44;80.53;101918.28;7292428;19;152456;-49
2021/08/26 04:06:23;;;;;;;;;;;;;;;22.44;80.68;101911.84;7284218;19;152966;-49
2021/08/26 04:08:50;;;;;;;;;;;;;;;22.44;80.76;101915.47;7283817;19;153241;-50
2021/08/26 04:11:17;;;;;;;;;;;;;;;22.43;80.69;101907.34;7285662;19;151911;-50
2021/08/26 04:13:44;;;;;;;;;;;;;;;22.42;80.48;101900.84;7284107;19;152116;-50
2021/08/26 04:16:12;;;;;;;;;;;;;;;22.42;80.95;101900.00;7282999;19;153492;-50
2021/08/26 04:18:39;;;;;;;;;;;;;;;22.43;80.97;101896.06;7285256;19;151946;-49
2021/08/26 04:21:06;;;;;;;;;;;;;;;22.43;80.69;101898.88;7285757;19;152809;-50
2021/08/26 04:23:33;;;;;;;;;;;;;;;22.42;80.71;101897.19;7290418;19;153537;-50
2021/08/26 04:26:00;;;;;;;;;;;;;;;22.43;80.88;101898.88;7285768;19;152941;-50
2021/08/26 04:28:27;;;;;;;;;;;;;;;22.42;80.84;101909.31;7284486;19;153411;-49
2021/08/26 04:30:54;;;;;;;;;;;;;;;22.41;80.74;101902.00;7283631;19;151520;-50
2021/08/26 04:33:22;;;;;;;;;;;;;;;22.42;80.85;101900.84;7282210;19;152164;-50
2021/08/26 04:35:49;;;;;;;;;;;;;;;22.42;80.80;101897.19;7282351;19;152660;-50
2021/08/26 04:38:16;;;;;;;;;;;;;;;22.42;80.69;101900.84;7285118;19;151764;-50
2021/08/26 04:40:43;;;;;;;;;;;;;;;22.41;80.51;101907.63;7283304;19;152885;-50
2021/08/26 04:43:10;;;;;;;;;;;;;;;22.42;80.46;101900.00;7283411;19;153573;-50
2021/08/26 04:45:37;;;;;;;;;;;;;;;22.41;80.82;101904.81;7293481;19;151814;-50
2021/08/26 04:48:05;;;;;;;;;;;;;;;22.42;80.89;101900.00;7283854;19;153064;-50
2021/08/26 04:50:32;;;;;;;;;;;;;;;22.41;80.84;101893.53;7281258;19;151973;-50
2021/08/26 04:52:59;;;;;;;;;;;;;;;22.41;80.81;101899.16;7281561;19;153595;-50
2021/08/26 04:55:26;;;;;;;;;;;;;;;22.42;80.86;101897.19;7280691;19;154226;-50
2021/08/26 04:57:53;;;;;;;;;;;;;;;22.41;80.96;101904.81;7284932;19;152552;-50
2021/08/26 05:00:21;;;;;;;;;;;;;;;22.41;80.75;101903.97;7282942;19;151696;-50
2021/08/26 05:02:49;;;;;;;;;;;;;;;22.42;81.03;101905.66;7281788;19;152678;-50
2021/08/26 05:05:16;;;;;;;;;;;;;;;22.42;80.85;101905.66;7283703;19;152232;-50
2021/08/26 05:07:43;;;;;;;;;;;;;;;22.42;81.11;101912.13;7289465;19;153460;-50
2021/08/26 05:10:10;;;;;;;;;;;;;;;22.42;80.91;101908.47;7284039;19;151892;-50
2021/08/26 05:12:37;;;;;;;;;;;;;;;22.41;81.42;101913.25;7283571;19;152680;-50
2021/08/26 05:15:05;;;;;;;;;;;;;;;22.41;81.13;101906.78;7277845;19;153213;-50
2021/08/26 05:17:32;;;;;;;;;;;;;;;22.42;81.14;101909.31;7283325;19;151815;-50
2021/08/26 05:19:59;;;;;;;;;;;;;;;22.40;81.35;101914.38;7280325;19;153557;-50
2021/08/26 05:22:26;;;;;;;;;;;;;;;22.41;81.50;101918.03;7282815;19;152395;-50
2021/08/26 05:24:53;;;;;;;;;;;;;;;22.41;81.46;101918.88;7283444;19;151783;-50
2021/08/26 05:27:21;;;;;;;;;;;;;;;22.39;81.56;101918.34;7283127;19;153930;-49
2021/08/26 05:29:48;;;;;;;;;;;;;;;22.40;81.53;101919.16;7289984;19;152968;-50
2021/08/26 05:32:19;;;;;;;;;;;;;;;22.40;80.84;101922.81;7282777;19;152715;-49
2021/08/26 05:34:46;;;;;;;;;;;;;;;22.41;80.96;101921.69;7281957;19;154121;-50
2021/08/26 05:37:13;;;;;;;;;;;;;;;22.39;81.20;101926.81;7282504;19;152121;-50
2021/08/26 05:39:40;;;;;;;;;;;;;;;22.41;81.24;101930.16;7280464;19;152753;-50
2021/08/26 05:42:08;;;;;;;;;;;;;;;22.42;81.56;101937.47;7282741;19;153453;-50
2021/08/26 05:44:35;;;;;;;;;;;;;;;22.42;81.50;101936.63;7280764;19;152101;-51
2021/08/26 05:47:02;;;;;;;;;;;;;;;22.42;81.59;101931.00;7284705;19;152727;-50
2021/08/26 05:49:29;;;;;;;;;;;;;;;22.43;81.52;101936.34;7278363;19;153495;-50
2021/08/26 05:51:56;;;;;;;;;;;;;;;22.42;81.03;101933.81;7289792;19;152318;-50
2021/08/26 05:54:24;;;;;;;;;;;;;;;22.42;81.47;101929.03;7278851;19;153374;-49
2021/08/26 05:56:51;;;;;;;;;;;;;;;22.41;81.38;101929.31;7283945;19;151544;-50
2021/08/26 05:59:18;;;;;;;;;;;;;;;22.41;81.36;101937.75;7282394;19;152862;-50
2021/08/26 06:01:45;;;;;;;;;;;;;;;22.42;81.19;101933.81;7280254;19;154068;-50
2021/08/26 06:04:13;;;;;;;;;;;;;;;22.41;81.28;101941.41;7281908;19;151979;-50
2021/08/26 06:06:40;;;;;;;;;;;;;;;22.41;81.08;101946.19;7283900;19;152681;-50
2021/08/26 06:09:07;;;;;;;;;;;;;;;22.41;80.98;101949.03;7287640;19;153105;-50
2021/08/26 06:11:34;;;;;;;;;;;;;;;22.39;81.53;101952.16;7297496;19;152861;-50
2021/08/26 06:14:01;;;;;;;;;;;;;;;22.39;81.48;101960.59;7285796;19;153391;-50
2021/08/26 06:16:28;;;;;;;;;;;;;;;22.39;81.40;101957.78;7286826;19;151808;-50
2021/08/26 06:18:56;;;;;;;;;;;;;;;22.40;81.30;101956.63;7287091;19;152549;-50
2021/08/26 06:21:23;;;;;;;;;;;;;;;22.41;81.18;101954.66;7289022;19;154206;-50
2021/08/26 06:23:50;;;;;;;;;;;;;;;22.40;81.48;101961.41;7285690;19;151871;-50
2021/08/26 06:26:17;;;;;;;;;;;;;;;22.39;81.46;101963.41;7289324;19;152382;-50
2021/08/26 06:28:45;;;;;;;;;;;;;;;22.40;80.92;101962.25;7288349;19;153889;-50
2021/08/26 06:31:13;;;;;;;;;;;;;;;22.40;81.37;101961.41;7287294;19;151978;-50
2021/08/26 06:33:40;;;;;;;;;;;;;;;22.39;81.05;101968.19;7292224;19;152384;-50
2021/08/26 06:36:08;;;;;;;;;;;;;;;22.40;81.44;101973.53;7288329;19;153534;-49
2021/08/26 06:38:35;;;;;;;;;;;;;;;22.40;81.15;101961.41;7286963;19;152006;-49
2021/08/26 06:41:02;;;;;;;;;;;;;;;22.39;81.29;101969.03;7286844;19;153816;-50
2021/08/26 06:43:29;;;;;;;;;;;;;;;22.39;81.13;101979.47;7286293;19;152033;-50
2021/08/26 06:45:57;;;;;;;;;;;;;;;22.40;80.91;101972.69;7288133;19;152533;-50
2021/08/26 06:48:24;;;;;;;;;;;;;;;22.39;81.17;101969.03;7287088;19;153224;-50
2021/08/26 06:50:51;;;;;;;;;;;;;;;22.40;80.90;101967.88;7287439;19;151987;-50
2021/08/26 06:53:18;;;;;;;;;;;;;;;22.41;80.53;101963.09;7286115;19;153179;-50
2021/08/26 06:55:45;;;;;;;;;;;;;;;22.41;80.60;101960.28;7293237;19;152380;-50
2021/08/26 06:58:18;;;;;;;;;;;;;;;22.40;80.93;101962.25;7286816;19;153475;-50
2021/08/26 07:00:50;;;;;;;;;;;;;;;22.40;80.69;101964.22;7285844;19;154194;-50
2021/08/26 07:03:19;;;;;;;;;;;;;;;22.40;80.54;101956.63;7286160;19;151678;-50
2021/08/26 07:05:49;;;;;;;;;;;;;;;22.39;80.51;101948.50;7288071;19;153658;-50
2021/08/26 07:08:17;;;;;;;;;;;;;;;22.40;80.64;101956.63;7286577;19;153311;-50
2021/08/26 07:10:47;;;;;;;;;;;;;;;22.40;80.61;101953.81;7285532;19;151624;-50
2021/08/26 07:13:15;;;;;;;;;;;;;;;22.43;80.40;101960.84;7284417;19;153070;-50
2021/08/26 07:15:42;;;;;;;;;;;;;;;22.42;80.85;101968.44;7285028;19;154126;-50
2021/08/26 07:18:14;;;;;;;;;;;;;;;22.43;80.54;101974.91;7291558;19;152006;-50
2021/08/26 07:20:54;;;;;;;;;;;;;;;22.42;80.26;101979.72;7284294;19;152714;-50
2021/08/26 07:23:31;;;;;;;;;;;;;;;22.42;80.80;101982.53;7285449;19;152020;-50
2021/08/26 07:26:04;;;;;;;;;;;;;;;22.42;80.19;101985.34;7283669;19;152390;-50
2021/08/26 07:28:33;;;;;;;;;;;;;;;22.43;80.61;101986.19;7282597;19;154145;-50
2021/08/26 07:31:00;;;;;;;;;;;;;;;22.42;80.59;101996.59;7287912;19;151745;-50
2021/08/26 07:33:27;;;;;;;;;;;;;;;22.43;80.54;101998.28;7284758;19;153749;-49
2021/08/26 07:35:56;;;;;;;;;;;;;;;22.43;80.33;101997.44;7287030;19;154335;-50
2021/08/26 07:38:29;;;;;;;;;;;;;;;22.43;80.64;102003.09;7285250;19;152054;-50
2021/08/26 07:40:57;;;;;;;;;;;;;;;22.42;80.49;101990.13;7293419;19;152915;-50
2021/08/26 07:43:25;;;;;;;;;;;;;;;22.42;80.59;101998.56;7285571;19;151967;-50
2021/08/26 07:45:53;;;;;;;;;;;;;;;22.45;80.44;102004.44;7287026;19;152656;-50
2021/08/26 07:48:20;;;;;;;;;;;;;;;22.45;80.84;102006.44;7285266;19;153752;-51
2021/08/26 07:50:48;;;;;;;;;;;;;;;22.43;80.69;101992.66;7287129;19;151736;-50
2021/08/26 07:53:23;;;;;;;;;;;;;;;22.43;80.56;101998.28;7282417;19;152652;-50
2021/08/26 07:55:52;;;;;;;;;;;;;;;22.47;80.75;101988.13;7283872;19;154678;-50
2021/08/26 07:58:19;;;;;;;;;;;;;;;22.46;80.78;101996.84;7286556;19;151768;-50
2021/08/26 08:00:46;;;;;;;;;;;;;;;22.46;80.34;102008.13;7283807;19;152161;-50
2021/08/26 08:03:14;;;;;;;;;;;;;;;22.47;80.83;101996.56;7291813;19;152642;-50
2021/08/26 08:05:43;;;;;;;;;;;;;;;22.47;80.64;101995.72;7282823;19;153569;-50
2021/08/26 08:08:11;;;;;;;;;;;;;;;22.49;80.10;102001.88;7281630;19;152030;-50
2021/08/26 08:10:38;;;;;;;;;;;;;;;22.47;79.90;101988.13;7285122;19;151444;-50
2021/08/26 08:13:05;;;;;;;;;;;;;;;22.46;80.07;101992.06;7284012;19;153944;-50
2021/08/26 08:15:32;;;;;;;;;;;;;;;22.43;80.23;101998.28;7285197;19;153300;-50
2021/08/26 08:17:59;;;;;;;;;;;;;;;22.43;79.99;102001.09;7284496;19;151830;-50
2021/08/26 08:20:26;;;;;;;;;;;;;;;22.42;79.99;102007.03;7284627;19;153481;-49
2021/08/26 08:22:55;;;;;;;;;;;;;;;22.42;80.11;102016.31;7288489;19;152830;-50
2021/08/26 08:25:22;;;;;;;;;;;;;;;22.44;80.15;102005.59;7286770;19;153026;-51
2021/08/26 08:27:52;;;;;;;;;;;;;;;22.46;79.36;102005.28;7283826;19;154173;-49
2021/08/26 08:30:25;;;;;;;;;;;;;;;22.44;79.73;102016.84;7282713;19;151688;-50
2021/08/26 08:32:57;;;;;;;;;;;;;;;22.45;79.54;102018.53;7285196;19;152671;-50
2021/08/26 08:35:27;;;;;;;;;;;;;;;22.47;79.53;102016.28;7282168;19;154191;-50
2021/08/26 08:37:54;;;;;;;;;;;;;;;22.45;79.09;102024.16;7285356;19;151977;-51
2021/08/26 08:40:21;;;;;;;;;;;;;;;22.47;78.39;102024.72;7284856;19;154614;-50
2021/08/26 08:43:27;;;;;;;;;;;;;;;22.37;71.71;102021.16;7282018;19;153338;-50
2021/08/26 08:46:25;;;;;;;;;;;;;;;22.32;69.03;102010.78;7291277;19;151968;-50
2021/08/26 08:48:54;;;;;;;;;;;;;;;22.35;68.00;102003.72;7281334;19;154480;-50
2021/08/26 08:51:21;;;;;;;;;;;;;;;22.31;66.17;102014.72;7280660;19;153974;-50
2021/08/26 08:53:50;;;;;;;;;;;;;;;22.33;66.15;102012.47;7279116;19;153363;-50
2021/08/26 08:56:22;;;;;;;;;;;;;;;22.23;65.02;102015.34;7283177;19;152521;-50
2021/08/26 08:58:49;;;;;;;;;;;;;;;22.24;64.67;102014.22;7281731;19;151612;-50
2021/08/26 09:01:19;;;;;;;;;;;;;;;22.25;65.26;102001.00;7284376;19;153022;-50
2021/08/26 09:03:50;;;;;;;;;;;;;;;22.23;64.82;102004.09;7281893;19;154151;-50
2021/08/26 09:06:23;;;;;;;;;;;;;;;22.22;63.53;102002.41;7283490;19;152091;-50
2021/08/26 09:09:01;;;;;;;;;;;;;;;22.25;63.96;102013.09;7290269;19;151787;-49
2021/08/26 09:11:34;;;;;;;;;;;;;;;22.22;63.43;102004.38;7280561;19;152442;-50
2021/08/26 09:14:07;;;;;;;;;;;;;;;22.15;63.42;102018.81;7281091;19;153485;-50
2021/08/26 09:16:44;;;;;;;;;;;;;;;22.14;63.82;102008.66;7282380;19;153603;-49
2021/08/26 09:19:24;;;;;;;;;;;;;;;22.15;63.64;102008.38;7280296;19;151896;-50
2021/08/26 09:22:01;;;;;;;;;;;;;;;22.12;63.35;102014.59;7280782;19;152303;-50
2021/08/26 09:24:37;;;;;;;;;;;;;;;22.09;64.70;102011.53;7281614;19;152276;-50
2021/08/26 09:27:10;;;;;;;;;;;;;;;22.08;65.09;102007.03;7285030;19;151785;-50
2021/08/26 09:29:51;;;;;;;;;;;;;;;22.10;62.77;102002.78;7281463;19;153261;-50
2021/08/26 09:32:44;;;;;;;;;;;;;;;22.05;63.94;102001.97;7285961;19;152505;-50
2021/08/26 09:35:34;;;;;;;;;;;;;;;22.02;62.80;102003.44;7279752;19;151774;-50
2021/08/26 09:42:00;;;;;;;;;;;;;;;22.03;62.77;102005.09;7280704;19;151661;-50
2021/08/26 09:45:22;;;;;;;;;;;;;;;22.02;62.56;102013.84;7284231;19;153866;-50
2021/08/26 09:47:52;;;;;;;;;;;;;;;21.99;62.81;102012.44;7289776;19;153442;-50
2021/08/26 09:50:22;;;;;;;;;;;;;;;22.01;62.33;102020.59;7289776;19;152700;-50
2021/08/26 09:52:51;;;;;;;;;;;;;;;21.99;62.14;102018.06;7287235;19;153901;-50
2021/08/26 09:55:19;;;;;;;;;;;;;;;21.90;61.54;102013.31;7285900;19;153386;-50
2021/08/26 09:58:08;;;;;;;;;;;;;;;21.89;60.54;102003.22;7289515;19;151877;-50
2021/08/26 10:00:36;;;;;;;;;;;;;;;21.85;59.83;102007.75;7281411;19;153881;-50
2021/08/26 10:03:03;;;;;;;;;;;;;;;21.82;60.02;102011.13;7288759;19;151927;-50
2021/08/26 10:05:30;;;;;;;;;;;;;;;21.83;62.09;102004.38;7287725;19;152258;-50
2021/08/26 10:07:57;;;;;;;;;;;;;;;21.84;62.56;102012.53;7285637;19;152773;-50
2021/08/26 10:10:24;;;;;;;;;;;;;;;21.85;63.22;102019.00;7287718;19;152655;-50
2021/08/26 10:13:07;;;;;;;;;;;;;;;21.86;64.00;102015.03;7288992;19;152682;-50
2021/08/26 10:15:35;;;;;;;;;;;;;;;21.87;64.19;102011.09;7283370;19;152629;-50
2021/08/26 10:18:02;;;;;;;;;;;;;;;21.88;64.10;102004.34;7287323;19;151899;-50
2021/08/26 10:20:28;;;;;;;;;;;;;;;21.88;64.41;102012.78;7294581;19;152661;-50
2021/08/26 10:22:56;;;;;;;;;;;;;;;21.89;65.03;102009.69;7287707;19;152762;-50
2021/08/26 10:25:23;;;;;;;;;;;;;;;21.90;65.03;102010.50;7287831;19;153509;-50
2021/08/26 10:27:50;;;;;;;;;;;;;;;21.91;65.25;102010.22;7285497;19;153592;-50
2021/08/26 10:30:27;;;;;;;;;;;;;;;21.89;65.25;102004.06;7286199;19;152857;-50
2021/08/26 10:33:03;;;;;;;;;;;;;;;21.89;65.33;102009.69;7287047;19;156555;-50
2021/08/26 10:35:29;;;;;;;;;;;;;;;21.88;65.29;102002.38;7285417;19;152993;-50
2021/08/26 10:37:57;;;;;;;;;;;;;;;21.90;65.48;101999.25;7289303;19;151768;-50
2021/08/26 10:40:25;;;;;;;;;;;;;;;21.90;65.42;102004.88;7294664;19;152629;-50
2021/08/26 10:42:52;;;;;;;;;;;;;;;21.93;65.03;102001.53;7285940;19;151912;-50
2021/08/26 10:45:22;;;;;;;;;;;;;;;21.97;64.67;102009.09;7286567;19;152639;-50
2021/08/26 10:47:49;;;;;;;;;;;;;;;21.97;64.79;102011.06;7284747;19;153725;-50
2021/08/26 10:50:16;;;;;;;;;;;;;;;21.95;64.85;102011.34;7288057;19;151525;-50
2021/08/26 10:52:52;;;;;;;;;;;;;;;21.93;64.94;102007.16;7284370;19;152778;-50
2021/08/26 10:55:39;;;;;;;;;;;;;;;21.94;64.96;102003.22;7283930;19;154212;-50
2021/08/26 10:58:16;;;;;;;;;;;;;;;21.95;65.42;102013.31;7278455;19;151865;-50
2021/08/26 11:00:43;;;;;;;;;;;;;;;21.95;65.29;102016.13;7216055;19;152560;-50
2021/08/26 11:03:11;;;;;;;;;;;;;;;21.96;65.30;102017.81;7293256;19;154119;-50
2021/08/26 11:05:58;;;;;;;;;;;;;;;21.95;65.15;102018.94;7285629;19;155659;-50
2021/08/26 11:08:28;;;;;;;;;;;;;;;21.95;66.04;102022.59;7285168;19;152426;-50
2021/08/26 11:10:56;;;;;;;;;;;;;;;21.98;66.16;102012.75;7282493;19;151809;-50
2021/08/26 11:13:32;;;;;;;;;;;;;;;21.97;64.84;102019.50;7286366;19;152662;-50
2021/08/26 11:16:09;;;;;;;;;;;;;;;21.99;64.65;102015.25;7282492;19;153828;-53
2021/08/26 11:18:36;;;;;;;;;;;;;;;22.02;64.20;102005.41;7285674;19;152222;-50
2021/08/26 11:21:02;;;;;;;;;;;;;;;21.97;64.38;102017.53;7284430;19;152806;-49
2021/08/26 11:23:39;;;;;;;;;;;;;;;22.00;64.38;102019.75;7282656;19;152620;-50
2021/08/26 11:26:15;;;;;;;;;;;;;;;22.03;63.43;102016.34;7290687;19;153665;-49
2021/08/26 11:28:42;;;;;;;;;;;;;;;22.04;62.99;102014.38;7275595;19;153984;-50
2021/08/26 11:31:12;;;;;;;;;;;;;;;22.04;62.69;102014.38;7284913;19;151884;-50
2021/08/26 11:33:39;;;;;;;;;;;;;;;22.04;62.84;102005.94;7284466;19;152771;-50
2021/08/26 11:36:14;;;;;;;;;;;;;;;22.05;63.64;102008.47;7283154;19;153737;-49
2021/08/26 11:38:46;;;;;;;;;;;;;;;22.06;62.72;102020.56;7280880;19;151967;-50
2021/08/26 11:41:13;;;;;;;;;;;;;;;22.06;62.90;102014.94;7283777;19;153305;-50
2021/08/26 11:43:42;;;;;;;;;;;;;;;22.03;62.77;102015.53;7284581;19;152833;-49
2021/08/26 11:46:13;;;;;;;;;;;;;;;22.03;62.49;102021.16;7280630;19;152269;-50
2021/08/26 11:48:49;;;;;;;;;;;;;;;22.00;62.44;102021.72;7291070;19;152058;-50
2021/08/26 11:51:25;;;;;;;;;;;;;;;22.01;62.74;102010.19;7284509;19;152082;-49
2021/08/26 11:53:52;;;;;;;;;;;;;;;22.03;62.40;102018.34;7282286;19;152621;-50
2021/08/26 11:56:19;;;;;;;;;;;;;;;22.01;62.40;102012.16;7280687;19;153643;-50
2021/08/26 11:58:46;;;;;;;;;;;;;;;22.03;62.11;102010.72;7283424;19;152453;-49
2021/08/26 12:01:20;;;;;;;;;;;;;;;22.01;62.95;102013.00;7283444;19;151701;-51
2021/08/26 12:03:54;;;;;;;;;;;;;;;21.98;62.58;102001.50;7279673;19;153265;-50
2021/08/26 12:06:22;;;;;;;;;;;;;;;22.02;62.66;102009.06;7284751;19;152090;-50
2021/08/26 12:08:49;;;;;;;;;;;;;;;22.02;63.01;102000.63;7285949;19;153460;-49
2021/08/26 12:11:25;;;;;;;;;;;;;;;21.97;62.69;102016.69;7290588;19;154980;-50
2021/08/26 12:13:56;;;;;;;;;;;;;;;21.96;62.57;102007.41;7282136;19;154570;-50
2021/08/26 12:16:34;;;;;;;;;;;;;;;21.99;63.23;102009.63;7280348;19;153845;-49
2021/08/26 12:19:11;;;;;;;;;;;;;;;21.97;62.34;102008.25;7281978;19;151961;-49
2021/08/26 12:21:38;;;;;;;;;;;;;;;21.99;62.97;102011.59;7283976;19;152708;-50
2021/08/26 12:24:05;;;;;;;;;;;;;;;21.99;62.57;102012.44;7282052;19;152333;-49
2021/08/26 12:26:36;;;;;;;;;;;;;;;21.97;62.84;102006.28;7282946;19;151935;-49
2021/08/26 12:29:03;;;;;;;;;;;;;;;21.97;63.01;102008.25;7283035;19;152584;-49
2021/08/26 12:31:30;;;;;;;;;;;;;;;21.98;62.41;102018.38;7282860;19;155129;-50
2021/08/26 12:34:03;;;;;;;;;;;;;;;21.95;63.13;102011.34;7289522;19;153258;-50
2021/08/26 12:36:31;;;;;;;;;;;;;;;21.95;62.99;102014.16;7279258;19;154096;-50
2021/08/26 12:39:18;;;;;;;;;;;;;;;21.95;63.08;102010.50;7276859;19;154831;-50
2021/08/26 12:41:45;;;;;;;;;;;;;;;21.92;63.40;102006.28;7277735;19;156943;-50
2021/08/26 12:44:22;;;;;;;;;;;;;;;21.92;62.68;102006.28;7280814;19;153484;-50
2021/08/26 12:46:53;;;;;;;;;;;;;;;21.96;62.49;102004.59;7287176;19;151758;-49